KCOT

Cotulla-La Salle County Airport

Cotulla, Texas, USA
METAR KCOT 231053Z AUTO 09003KT 7SM RA FEW025 BKN042 OVC080 11/11 A3015 RMK AO2 RAE0957B22 SLP207 P0003 T01060106
Observed Flight Rules
Oct-23 @ 10:53 UTC (55 minutes ago) Visual Flight Rules
Wind Visibility Clouds Conditions
90° at 3 knots 7 miles
  • Few at 2,500' AGL
  • Broken at 4,200' AGL
  • Overcast at 8,000' AGL
  • Rain
Temperatures Readings Precipitation
Current 11°C / 52°F
Dewpoint 11°C / 52°F
Humidity 100%
Altimeter 30.15" Hg
Pressure 1020.7 hPa
Elevation 140
Current Rain 0.03
METAR KCOT 231053Z AUTO 09003KT 7SM RA FEW025 BKN042 OVC080 11/11 A3015 RMK AO2 RAE0957B22 SLP207 P0003 T01060106
Observed Flight Rules
Oct-23 @ 10:53 UTC
(55 minutes ago)
VFR
Wind Visibility
90° at 3 knots 7 miles
Clouds
  • Few at 2,500' AGL
  • Broken at 4,200' AGL
  • Overcast at 8,000' AGL
Conditions
  • Rain
Temperature Dewpoint
11°C / 52°F 11°C / 52°F
Humidity Altimeter Pressure
100% 30.15" Hg 1020.7 hPa
Current Rain
0.03